Time;durP1;ratioP1;P1;durP2;ratioP2;P2;SDS_P1;SDS_P2;PMS_P1;PMS_P2;Temp;Humidity;BMP_temperature;BMP_pressure;BME280_temperature;BME280_humidity;BME280_pressure;Samples;Min_cycle;Max_cycle;Signal;HPM_P1;HPM_P2
2023/01/18 00:00:05;;;;;;;20.60;11.30;;;3.00;99.90;;;;;;6100591;23;20146;-79
2023/01/18 00:02:31;;;;;;;17.40;9.40;;;3.10;99.90;;;;;;6100506;23;20158;-82
2023/01/18 00:04:56;;;;;;;19.77;10.43;;;3.00;99.90;;;;;;6100802;23;20178;-79
2023/01/18 00:07:22;;;;;;;22.20;10.60;;;2.80;99.90;;;;;;6126457;23;20185;-80
2023/01/18 00:09:47;;;;;;;20.87;9.53;;;2.90;99.90;;;;;;6124703;23;20163;-80
2023/01/18 00:12:13;;;;;;;17.37;9.60;;;2.80;99.90;;;;;;6125100;23;20153;-81
2023/01/18 00:14:39;;;;;;;18.83;9.70;;;2.80;99.90;;;;;;6100460;23;20149;-80
2023/01/18 00:17:04;;;;;;;59.67;28.17;;;2.70;99.90;;;;;;6125149;23;20487;-79
2023/01/18 00:19:32;;;;;;;52.90;29.63;;;2.80;99.90;;;;;;6100719;23;20154;-80
2023/01/18 00:21:59;;;;;;;25.40;13.10;;;2.60;99.90;;;;;;6126021;23;20197;-80
2023/01/18 00:24:26;;;;;;;18.60;10.70;;;2.70;99.90;;;;;;6126446;23;20134;-80
2023/01/18 00:26:52;;;;;;;22.33;10.83;;;2.80;99.90;;;;;;6126328;23;20621;-80
2023/01/18 00:29:18;;;;;;;22.27;14.57;;;2.90;99.90;;;;;;6100210;23;20620;-80
2023/01/18 00:31:44;;;;;;;22.70;14.37;;;2.90;99.90;;;;;;6126148;23;20158;-80
2023/01/18 00:34:10;;;;;;;30.57;14.90;;;2.90;99.90;;;;;;6124760;23;20205;-81
2023/01/18 00:36:36;;;;;;;25.70;15.00;;;2.90;99.90;;;;;;6100015;23;20154;-81
2023/01/18 00:39:02;;;;;;;18.87;11.50;;;2.90;99.90;;;;;;6126316;23;20157;-81
2023/01/18 00:41:28;;;;;;;17.33;9.73;;;3.00;99.90;;;;;;6126760;23;20134;-80
2023/01/18 00:43:54;;;;;;;18.17;10.33;;;2.90;99.90;;;;;;6100135;23;20172;-80
2023/01/18 00:46:22;;;;;;;21.47;13.50;;;2.80;99.90;;;;;;6126120;23;20198;-81
2023/01/18 00:48:49;;;;;;;21.23;11.53;;;2.70;99.90;;;;;;6126862;23;20150;-79
2023/01/18 00:51:18;;;;;;;26.40;14.57;;;2.60;99.90;;;;;;6100234;23;20158;-80
2023/01/18 00:53:44;;;;;;;27.20;15.67;;;2.50;99.90;;;;;;6100038;23;20240;-80
2023/01/18 00:56:16;;;;;;;42.63;25.93;;;2.60;99.90;;;;;;6126106;23;20165;-80
2023/01/18 00:58:44;;;;;;;23.53;13.70;;;2.70;99.90;;;;;;6099764;23;20149;-80
2023/01/18 01:01:10;;;;;;;22.63;11.30;;;2.70;99.90;;;;;;6125602;23;20271;-80
2023/01/18 01:06:43;;;;;;;19.60;11.77;;;2.50;99.90;;;;;;6126010;23;20233;-80
2023/01/18 01:09:28;;;;;;;28.07;17.13;;;2.50;99.90;;;;;;6126051;23;20130;-80
2023/01/18 01:26:09;;;;;;;27.07;18.30;;;2.70;99.90;;;;;;6126144;23;20261;-80
2023/01/18 01:28:40;;;;;;;23.07;14.37;;;2.80;99.90;;;;;;6125835;23;20561;-81
2023/01/18 01:31:08;;;;;;;21.03;12.53;;;2.80;99.90;;;;;;6099787;23;20153;-79
2023/01/18 01:33:35;;;;;;;20.77;11.93;;;2.70;99.90;;;;;;6125485;23;20158;-81
2023/01/18 01:36:04;;;;;;;28.03;19.03;;;2.50;99.90;;;;;;6125918;23;20130;-81
2023/01/18 01:38:30;;;;;;;20.53;11.00;;;2.30;99.90;;;;;;6123899;23;20160;-81
2023/01/18 01:41:05;;;;;;;20.23;13.67;;;2.30;99.90;;;;;;6124217;23;20154;-81
2023/01/18 01:43:48;;;;;;;27.30;16.90;;;2.20;99.90;;;;;;6126195;23;20153;-81
2023/01/18 01:46:38;;;;;;;22.80;12.60;;;2.30;99.90;;;;;;6099763;23;20193;-80
2023/01/18 01:49:22;;;;;;;18.67;10.13;;;2.10;99.90;;;;;;6125851;23;20552;-81
2023/01/18 01:52:05;;;;;;;19.60;11.10;;;2.10;99.90;;;;;;6099601;23;20153;-81
2023/01/18 01:54:46;;;;;;;20.07;13.67;;;2.20;99.90;;;;;;6099739;23;20154;-79
2023/01/18 01:57:20;;;;;;;19.80;10.63;;;2.30;99.90;;;;;;6125481;23;20134;-81
2023/01/18 01:59:58;;;;;;;16.50;10.23;;;2.00;99.90;;;;;;6125210;23;20572;-80
2023/01/18 02:02:23;;;;;;;22.87;14.03;;;1.90;99.90;;;;;;6123281;23;20149;-81
2023/01/18 02:04:53;;;;;;;24.40;16.50;;;1.90;99.90;;;;;;6125518;23;20166;-81
2023/01/18 02:07:22;;;;;;;20.30;10.87;;;1.90;99.90;;;;;;6123939;23;20192;-80
2023/01/18 02:09:51;;;;;;;26.90;16.93;;;1.90;99.90;;;;;;6126021;23;20138;-80
2023/01/18 02:12:17;;;;;;;20.57;14.90;;;1.90;99.90;;;;;;6125808;23;20149;-80
2023/01/18 02:14:42;;;;;;;22.73;14.83;;;1.80;99.90;;;;;;6099970;23;20247;-80
2023/01/18 02:17:31;;;;;;;24.67;13.23;;;1.90;99.90;;;;;;6124111;23;20146;-79
2023/01/18 02:20:23;;;;;;;17.70;10.53;;;1.90;99.90;;;;;;6099402;23;20209;-79
2023/01/18 02:23:33;;;;;;;18.97;9.80;;;1.80;99.90;;;;;;6125409;23;20632;-80
2023/01/18 02:26:02;;;;;;;13.70;8.60;;;1.70;99.90;;;;;;6111126;23;20210;-80
2023/01/18 02:28:33;;;;;;;18.97;9.50;;;1.70;99.90;;;;;;6099552;23;20181;-80
2023/01/18 02:31:18;;;;;;;15.97;10.53;;;2.00;99.90;;;;;;6125147;23;20564;-80
2023/01/18 02:34:22;;;;;;;17.70;10.17;;;2.20;99.90;;;;;;6099774;23;20577;-79
2023/01/18 02:36:48;;;;;;;17.07;9.73;;;2.20;99.90;;;;;;6078717;23;20157;-79
2023/01/18 02:39:56;;;;;;;17.93;10.73;;;2.00;99.90;;;;;;6125706;23;20181;-79
2023/01/18 02:48:07;;;;;;;16.77;9.47;;;2.10;99.90;;;;;;6125395;23;20161;-79
2023/01/18 02:50:32;;;;;;;16.57;8.97;;;1.90;99.90;;;;;;6123992;23;20155;-79
2023/01/18 02:52:58;;;;;;;13.83;8.97;;;2.00;99.90;;;;;;6125254;23;20169;-79
2023/01/18 02:55:52;;;;;;;16.17;9.13;;;2.00;99.90;;;;;;6125640;23;20168;-79
2023/01/18 02:58:33;;;;;;;15.53;8.90;;;2.20;99.90;;;;;;6118191;23;20188;-83
2023/01/18 03:01:25;;;;;;;17.27;8.80;;;2.10;99.90;;;;;;6099302;23;20137;-83
2023/01/18 03:04:03;;;;;;;16.47;9.47;;;2.10;99.90;;;;;;6124176;23;20149;-83
2023/01/18 03:06:29;;;;;;;15.03;8.53;;;2.10;99.90;;;;;;6124187;23;20173;-85
2023/01/18 03:08:57;;;;;;;21.07;11.60;;;2.00;99.90;;;;;;6099588;23;20245;-84
2023/01/18 03:11:32;;;;;;;38.10;17.87;;;1.90;99.90;;;;;;6099801;23;20565;-83
2023/01/18 03:14:10;;;;;;;27.57;15.80;;;1.80;99.90;;;;;;6099473;23;20664;-83
2023/01/18 03:16:56;;;;;;;48.37;21.60;;;1.70;99.90;;;;;;6099402;23;20596;-83
2023/01/18 03:25:24;;;;;;;69.00;37.03;;;1.60;99.90;;;;;;6125423;23;20477;-83
2023/01/18 03:36:26;;;;;;;23.03;10.83;;;1.60;99.90;;;;;;6127494;23;20253;-83
2023/01/18 03:39:27;;;;;;;17.70;9.80;;;1.50;99.90;;;;;;6127274;23;20146;-84
2023/01/18 03:41:59;;;;;;;13.77;8.30;;;1.30;99.90;;;;;;6125138;23;20644;-79
2023/01/18 03:44:53;;;;;;;23.03;13.17;;;1.30;99.90;;;;;;6100943;23;20204;-80
2023/01/18 03:47:19;;;;;;;20.17;10.60;;;1.30;99.90;;;;;;6094613;23;20190;-80
2023/01/18 03:49:45;;;;;;;15.93;10.60;;;1.40;99.90;;;;;;6101031;23;20227;-80
2023/01/18 03:52:16;;;;;;;19.13;12.20;;;1.40;99.90;;;;;;6101106;23;20579;-80
2023/01/18 03:54:58;;;;;;;19.40;10.30;;;1.40;99.90;;;;;;6100687;23;20150;-80
2023/01/18 03:57:34;;;;;;;48.73;36.33;;;1.40;99.90;;;;;;6100931;23;20480;-80
2023/01/18 04:00:01;;;;;;;22.17;13.77;;;1.70;99.90;;;;;;6124522;23;20167;-80
2023/01/18 04:02:28;;;;;;;44.03;29.10;;;1.80;99.90;;;;;;6124960;23;20236;-80
2023/01/18 04:04:56;;;;;;;24.40;14.23;;;1.90;99.90;;;;;;6125163;23;20599;-80
2023/01/18 04:07:24;;;;;;;24.07;14.47;;;1.90;99.90;;;;;;6127011;23;20176;-80
2023/01/18 04:09:50;;;;;;;34.20;18.67;;;1.70;99.90;;;;;;6125066;23;20611;-79
2023/01/18 04:12:17;;;;;;;19.50;11.20;;;1.70;99.90;;;;;;6100505;23;20170;-80
2023/01/18 04:14:43;;;;;;;18.23;11.33;;;1.60;99.90;;;;;;6124991;23;20541;-80
2023/01/18 04:17:09;;;;;;;23.87;14.83;;;1.60;99.90;;;;;;6125330;23;20146;-80
2023/01/18 04:19:34;;;;;;;17.33;10.10;;;1.60;99.90;;;;;;6100946;23;20156;-80
2023/01/18 04:22:00;;;;;;;19.80;12.10;;;1.50;99.90;;;;;;6100796;23;20584;-80
2023/01/18 04:24:25;;;;;;;16.93;11.97;;;1.20;99.90;;;;;;6126871;23;20142;-80
2023/01/18 04:26:51;;;;;;;23.07;11.57;;;1.20;99.90;;;;;;6126443;23;20209;-79
2023/01/18 04:29:16;;;;;;;23.00;12.73;;;1.10;99.90;;;;;;6125024;23;20154;-80
2023/01/18 04:31:43;;;;;;;17.93;11.67;;;1.20;99.90;;;;;;6100705;23;20177;-80
2023/01/18 04:34:09;;;;;;;18.43;10.90;;;1.30;99.90;;;;;;6100235;23;20142;-80
2023/01/18 04:36:34;;;;;;;20.80;11.33;;;1.30;99.90;;;;;;6124812;23;20184;-80
2023/01/18 04:39:00;;;;;;;21.13;12.80;;;1.10;99.90;;;;;;6126407;23;20229;-79
2023/01/18 04:41:27;;;;;;;22.30;12.23;;;1.00;99.90;;;;;;6126012;23;20134;-81
2023/01/18 04:43:53;;;;;;;22.33;13.17;;;1.00;99.90;;;;;;6125815;23;20160;-81
2023/01/18 04:46:19;;;;;;;19.33;10.37;;;0.90;99.90;;;;;;6100072;23;20664;-81
2023/01/18 04:48:49;;;;;;;15.73;10.23;;;0.80;99.90;;;;;;6100465;23;20244;-81
2023/01/18 04:51:15;;;;;;;18.53;11.07;;;0.80;99.90;;;;;;6100480;23;20569;-81
2023/01/18 04:53:42;;;;;;;19.70;13.00;;;0.80;99.90;;;;;;6100600;23;20229;-81
2023/01/18 04:56:07;;;;;;;19.83;11.97;;;0.80;99.90;;;;;;6100498;23;20583;-81
2023/01/18 04:58:33;;;;;;;18.37;11.20;;;0.90;99.90;;;;;;6124964;23;20156;-81
2023/01/18 05:01:03;;;;;;;18.60;12.67;;;1.00;99.90;;;;;;6099955;23;20151;-81
2023/01/18 05:03:29;;;;;;;18.53;11.47;;;1.00;99.90;;;;;;6126762;23;20468;-81
2023/01/18 05:05:54;;;;;;;21.93;12.40;;;1.20;99.90;;;;;;6100583;23;20157;-81
2023/01/18 05:08:20;;;;;;;20.63;11.47;;;1.10;99.90;;;;;;6124652;23;20489;-81
2023/01/18 05:10:46;;;;;;;23.33;12.97;;;1.20;99.90;;;;;;6124692;23;20157;-81
2023/01/18 05:13:12;;;;;;;18.90;11.43;;;1.20;99.90;;;;;;6124931;23;20146;-80
2023/01/18 05:15:37;;;;;;;21.00;11.57;;;1.20;99.90;;;;;;6124755;23;20224;-81
2023/01/18 05:18:04;;;;;;;20.10;11.70;;;1.10;99.90;;;;;;6124774;23;20599;-81
2023/01/18 05:20:30;;;;;;;24.37;12.17;;;1.10;99.90;;;;;;6100697;23;20172;-78
2023/01/18 05:22:55;;;;;;;20.13;11.50;;;1.00;99.90;;;;;;6100132;23;20152;-81
2023/01/18 05:25:21;;;;;;;19.00;11.03;;;0.90;99.90;;;;;;6126134;23;20149;-81
2023/01/18 05:27:46;;;;;;;21.60;11.77;;;1.00;99.90;;;;;;6100312;23;20213;-80
2023/01/18 05:30:12;;;;;;;19.37;12.23;;;1.10;99.90;;;;;;6126192;23;20464;-80
2023/01/18 05:32:39;;;;;;;20.40;11.97;;;1.20;99.90;;;;;;6100227;23;20193;-80
2023/01/18 05:35:05;;;;;;;20.70;11.20;;;1.30;99.90;;;;;;6124676;23;20492;-80
2023/01/18 05:37:31;;;;;;;21.30;14.13;;;1.20;99.90;;;;;;6126051;23;20165;-81
2023/01/18 05:39:58;;;;;;;16.17;10.30;;;1.20;99.90;;;;;;6099996;23;20154;-81
2023/01/18 05:42:24;;;;;;;18.40;11.90;;;1.20;99.90;;;;;;6099910;23;20161;-80
2023/01/18 05:44:50;;;;;;;18.10;10.43;;;1.10;99.90;;;;;;6124644;23;20150;-80
2023/01/18 05:47:22;;;;;;;16.83;10.37;;;1.10;99.90;;;;;;6100313;23;20184;-80
2023/01/18 05:49:59;;;;;;;22.73;12.03;;;1.00;99.90;;;;;;6126711;23;20145;-84
2023/01/18 05:52:31;;;;;;;23.73;13.17;;;1.00;99.90;;;;;;6100552;23;20343;-84
2023/01/18 05:55:05;;;;;;;22.33;11.47;;;1.10;99.90;;;;;;6110227;23;20169;-84
2023/01/18 05:57:31;;;;;;;19.83;11.43;;;1.10;99.90;;;;;;6125105;23;20149;-83
2023/01/18 05:59:56;;;;;;;20.43;12.83;;;1.20;99.90;;;;;;6100339;23;20719;-84
2023/01/18 06:02:27;;;;;;;19.67;11.67;;;1.30;99.90;;;;;;6100416;23;20242;-83
2023/01/18 06:05:00;;;;;;;21.27;11.20;;;1.40;99.90;;;;;;6126600;23;20137;-82
2023/01/18 06:07:32;;;;;;;21.97;10.87;;;1.30;99.90;;;;;;6100008;23;20161;-84
2023/01/18 06:10:01;;;;;;;17.20;10.40;;;1.10;99.90;;;;;;6100275;23;20233;-82
2023/01/18 06:12:33;;;;;;;17.60;10.43;;;1.10;99.90;;;;;;6125091;23;20321;-83
2023/01/18 06:15:01;;;;;;;27.93;14.93;;;1.20;99.90;;;;;;6124932;23;20148;-84
2023/01/18 06:17:30;;;;;;;23.20;12.30;;;1.20;99.90;;;;;;6126432;23;20161;-83
2023/01/18 06:19:59;;;;;;;19.57;12.10;;;1.30;99.90;;;;;;6100366;23;20146;-84
2023/01/18 06:23:05;;;;;;;17.33;10.70;;;1.30;99.90;;;;;;6100335;23;20142;-83
2023/01/18 06:25:34;;;;;;;23.33;12.03;;;1.40;99.90;;;;;;6124872;23;20220;-80
2023/01/18 06:28:04;;;;;;;25.37;13.77;;;1.40;99.90;;;;;;6124964;23;20272;-84
2023/01/18 06:30:30;;;;;;;18.47;10.60;;;1.30;99.90;;;;;;6100749;23;20149;-84
2023/01/18 06:33:03;;;;;;;35.00;16.10;;;1.20;99.90;;;;;;6124709;23;20614;-84
2023/01/18 06:35:42;;;;;;;32.43;15.13;;;1.20;99.90;;;;;;6124875;23;20161;-83
2023/01/18 06:38:24;;;;;;;21.37;9.80;;;1.30;99.90;;;;;;6124607;23;20150;-80
2023/01/18 06:41:03;;;;;;;31.37;18.33;;;1.40;99.90;;;;;;6124947;23;20146;-85
2023/01/18 06:43:45;;;;;;;23.47;12.50;;;1.30;99.90;;;;;;6124863;23;20165;-82
2023/01/18 06:46:11;;;;;;;19.97;11.13;;;1.40;99.90;;;;;;6099981;23;20762;-84
2023/01/18 06:48:37;;;;;;;20.50;11.80;;;1.50;99.90;;;;;;6124554;23;20173;-84
2023/01/18 06:51:03;;;;;;;39.70;25.77;;;1.60;99.90;;;;;;6124439;23;20150;-85
2023/01/18 06:53:29;;;;;;;24.20;11.63;;;1.60;99.90;;;;;;6099639;23;20146;-84
2023/01/18 06:55:57;;;;;;;19.53;10.63;;;1.50;99.90;;;;;;6126160;23;20631;-85
2023/01/18 06:58:24;;;;;;;18.47;10.60;;;1.40;99.90;;;;;;6100424;23;20181;-84
2023/01/18 07:00:53;;;;;;;22.07;10.63;;;1.40;99.90;;;;;;6125826;23;20183;-84
2023/01/18 07:03:19;;;;;;;25.83;14.33;;;1.30;99.90;;;;;;6099559;23;20220;-85
2023/01/18 07:05:45;;;;;;;23.10;10.93;;;1.20;99.90;;;;;;6100603;23;20181;-85
2023/01/18 07:08:12;;;;;;;16.33;11.23;;;1.00;99.90;;;;;;6102567;23;20603;-84
2023/01/18 07:10:37;;;;;;;25.17;16.37;;;0.90;99.90;;;;;;6102545;23;20149;-84
2023/01/18 07:13:03;;;;;;;15.83;10.30;;;0.90;99.90;;;;;;6102512;23;20149;-85
2023/01/18 07:15:29;;;;;;;16.90;12.27;;;0.90;99.90;;;;;;6103410;23;20142;-84
2023/01/18 07:17:54;;;;;;;21.43;11.70;;;1.00;99.90;;;;;;6102492;23;20568;-85
2023/01/18 07:20:20;;;;;;;20.57;12.17;;;1.00;99.90;;;;;;6102567;23;20150;-84
2023/01/18 07:22:54;;;;;;;17.10;10.20;;;1.00;99.90;;;;;;6101875;23;20157;-84
2023/01/18 07:25:20;;;;;;;16.47;11.17;;;1.10;99.90;;;;;;6102105;23;20232;-85
2023/01/18 07:27:47;;;;;;;53.03;33.67;;;1.00;99.90;;;;;;6128214;23;20561;-84
2023/01/18 07:30:14;;;;;;;62.17;33.00;;;1.20;99.90;;;;;;6102087;23;20145;-84
2023/01/18 07:32:48;;;;;;;32.77;17.47;;;1.30;99.90;;;;;;6102292;23;20150;-85
2023/01/18 07:35:20;;;;;;;118.33;56.27;;;1.20;99.90;;;;;;6126317;23;20157;-84
2023/01/18 07:37:52;;;;;;;23.20;12.97;;;1.20;99.90;;;;;;6102184;23;20489;-84
2023/01/18 07:40:20;;;;;;;28.97;13.43;;;1.10;99.90;;;;;;6127786;23;20134;-83
2023/01/18 07:42:54;;;;;;;216.30;95.83;;;1.20;99.90;;;;;;6126357;23;20453;-84
2023/01/18 07:45:20;;;;;;;43.37;22.43;;;1.20;99.90;;;;;;6101905;23;20591;-85
2023/01/18 07:47:46;;;;;;;51.93;27.10;;;1.20;99.90;;;;;;6101753;23;20167;-83
2023/01/18 07:50:15;;;;;;;89.40;39.90;;;1.40;99.90;;;;;;6125923;23;20146;-84
2023/01/18 07:52:41;;;;;;;72.83;31.27;;;1.40;99.90;;;;;;6101705;23;20611;-85
2023/01/18 07:55:07;;;;;;;66.97;30.90;;;1.40;99.90;;;;;;6126051;23;20169;-85
2023/01/18 07:57:32;;;;;;;61.00;30.17;;;1.50;99.90;;;;;;6101789;23;20159;-85
2023/01/18 07:59:59;;;;;;;72.97;36.83;;;1.40;99.90;;;;;;6101724;23;20485;-85
2023/01/18 08:02:24;;;;;;;108.17;47.40;;;1.50;99.90;;;;;;6127639;23;20570;-85
2023/01/18 08:04:50;;;;;;;25.17;13.77;;;1.50;99.90;;;;;;6126207;23;20168;-84
2023/01/18 08:07:17;;;;;;;26.07;13.70;;;1.30;99.90;;;;;;6127897;23;20200;-84
2023/01/18 08:09:43;;;;;;;58.07;30.93;;;1.30;99.90;;;;;;6101712;23;20150;-85
2023/01/18 08:12:12;;;;;;;55.47;30.20;;;1.30;99.90;;;;;;6126034;23;20146;-83
2023/01/18 08:14:40;;;;;;;35.27;19.97;;;1.30;99.90;;;;;;6101607;23;20153;-84
2023/01/18 08:17:05;;;;;;;22.50;12.70;;;1.40;99.90;;;;;;6126161;23;20209;-85
2023/01/18 08:19:32;;;;;;;18.73;11.80;;;1.60;99.90;;;;;;6101327;23;20224;-83
2023/01/18 08:21:58;;;;;;;18.77;12.00;;;1.70;99.90;;;;;;6127473;23;20165;-85
2023/01/18 08:24:24;;;;;;;18.40;10.90;;;1.70;99.90;;;;;;6128336;23;20169;-85
2023/01/18 08:26:49;;;;;;;22.00;11.43;;;1.70;99.90;;;;;;6101566;23;20170;-84
2023/01/18 08:29:15;;;;;;;21.23;11.93;;;1.90;99.90;;;;;;6101576;23;20529;-85
2023/01/18 08:31:40;;;;;;;21.83;12.07;;;2.10;99.90;;;;;;6101709;23;20568;-85
2023/01/18 08:34:06;;;;;;;22.17;11.47;;;2.00;99.90;;;;;;6125871;23;20154;-85
2023/01/18 08:36:32;;;;;;;20.87;12.00;;;1.90;99.90;;;;;;6126022;23;20146;-85
2023/01/18 08:38:57;;;;;;;21.03;11.70;;;1.70;99.90;;;;;;6125991;23;20149;-84
2023/01/18 08:41:27;;;;;;;24.00;12.03;;;1.60;99.90;;;;;;6125606;23;20152;-84
2023/01/18 08:43:54;;;;;;;16.70;10.60;;;1.60;99.90;;;;;;6101260;23;20209;-83
2023/01/18 08:46:21;;;;;;;22.97;11.93;;;1.50;99.90;;;;;;6109740;23;20177;-84
2023/01/18 08:48:51;;;;;;;17.53;10.50;;;1.70;99.90;;;;;;6125470;23;20154;-84
2023/01/18 08:51:17;;;;;;;19.53;11.40;;;1.70;99.90;;;;;;6100934;23;20247;-85
2023/01/18 08:53:45;;;;;;;18.03;11.87;;;1.70;99.90;;;;;;6100994;23;20239;-84
2023/01/18 08:56:11;;;;;;;19.17;10.67;;;1.60;99.90;;;;;;6101577;23;20158;-84
2023/01/18 08:58:38;;;;;;;22.53;11.70;;;1.80;99.90;;;;;;6101382;23;20490;-86
2023/01/18 09:01:05;;;;;;;21.90;10.73;;;2.00;99.90;;;;;;6125529;23;20150;-84
2023/01/18 09:03:31;;;;;;;25.80;11.93;;;1.90;99.90;;;;;;6100836;23;20594;-85
2023/01/18 09:05:59;;;;;;;15.53;10.17;;;1.90;99.90;;;;;;6101312;23;20168;-85
2023/01/18 09:08:25;;;;;;;18.37;10.87;;;1.90;99.90;;;;;;6101005;23;20146;-78
2023/01/18 09:10:51;;;;;;;21.50;11.87;;;1.70;99.90;;;;;;6100795;23;20488;-79
2023/01/18 09:13:17;;;;;;;27.20;11.70;;;1.80;99.90;;;;;;6101267;23;20232;-79
2023/01/18 09:15:44;;;;;;;20.10;10.57;;;2.00;99.90;;;;;;6125645;23;20213;-79
2023/01/18 09:18:09;;;;;;;18.47;11.43;;;2.20;99.90;;;;;;6126467;23;20135;-80
2023/01/18 09:20:35;;;;;;;21.57;11.60;;;2.20;99.90;;;;;;6100834;23;20249;-78
2023/01/18 09:23:05;;;;;;;21.70;11.27;;;2.20;99.90;;;;;;6100899;23;20869;-78
2023/01/18 09:25:31;;;;;;;17.73;10.70;;;2.10;99.90;;;;;;6125157;23;20164;-78
2023/01/18 09:27:57;;;;;;;16.93;9.73;;;2.10;99.90;;;;;;6125238;23;20517;-81
2023/01/18 09:30:22;;;;;;;16.77;10.80;;;2.20;99.90;;;;;;6124999;23;20148;-80
2023/01/18 09:32:48;;;;;;;18.13;10.87;;;2.10;99.90;;;;;;6124804;23;20142;-79
2023/01/18 09:35:16;;;;;;;19.00;11.00;;;2.20;99.90;;;;;;6126871;23;20184;-79
2023/01/18 09:37:43;;;;;;;16.47;11.20;;;2.20;99.90;;;;;;6101166;23;20150;-80
2023/01/18 09:40:16;;;;;;;19.17;10.80;;;2.30;99.90;;;;;;6126586;23;20189;-79
2023/01/18 09:42:43;;;;;;;19.87;11.50;;;2.30;99.90;;;;;;6125139;23;20586;-79
2023/01/18 09:45:22;;;;;;;21.37;11.23;;;2.50;99.90;;;;;;6125042;23;20149;-80
2023/01/18 09:47:56;;;;;;;20.40;11.20;;;2.30;99.90;;;;;;6127040;23;20246;-79
2023/01/18 09:50:22;;;;;;;16.43;10.07;;;2.30;99.90;;;;;;6126980;23;20221;-79
2023/01/18 09:53:10;;;;;;;21.23;11.00;;;2.30;99.90;;;;;;6101540;23;20146;-81
2023/01/18 09:55:55;;;;;;;19.77;10.70;;;2.30;99.90;;;;;;6127489;23;20525;-79
2023/01/18 09:58:45;;;;;;;19.20;10.70;;;2.40;99.90;;;;;;6102568;23;20170;-80
2023/01/18 10:01:18;;;;;;;18.40;9.47;;;2.40;99.90;;;;;;6100938;23;20146;-80
2023/01/18 10:04:02;;;;;;;16.67;9.37;;;2.20;99.90;;;;;;6101619;23;20170;-78
2023/01/18 10:06:44;;;;;;;16.93;9.73;;;2.30;99.90;;;;;;6101406;23;20181;-80
2023/01/18 10:09:16;;;;;;;15.17;9.30;;;2.60;99.90;;;;;;6127387;23;20208;-80
2023/01/18 10:11:53;;;;;;;16.10;9.23;;;2.70;99.90;;;;;;6101123;23;20157;-79
2023/01/18 10:15:00;;;;;;;16.87;9.53;;;2.60;99.90;;;;;;6101685;23;20169;-80
2023/01/18 10:17:39;;;;;;;16.50;8.20;;;2.50;99.90;;;;;;6109871;23;20244;-78
2023/01/18 10:20:12;;;;;;;17.63;9.87;;;2.70;99.90;;;;;;6100680;23;20153;-80
2023/01/18 10:22:47;;;;;;;17.83;9.40;;;2.90;99.90;;;;;;6100251;23;20153;-79
2023/01/18 10:25:35;;;;;;;14.87;8.20;;;3.00;99.90;;;;;;6126315;23;20144;-80
2023/01/18 10:28:27;;;;;;;11.57;7.37;;;3.10;99.90;;;;;;6100508;23;20169;-78
2023/01/18 10:31:30;;;;;;;19.30;9.30;;;3.10;99.90;;;;;;6123644;23;20526;-78
2023/01/18 10:33:59;;;;;;;17.03;8.17;;;3.10;99.90;;;;;;6100206;23;20149;-78
2023/01/18 10:36:31;;;;;;;12.47;8.17;;;3.40;99.90;;;;;;6100213;23;20524;-80
2023/01/18 10:39:01;;;;;;;14.47;8.37;;;3.50;99.90;;;;;;6099926;23;20153;-78
2023/01/18 10:41:36;;;;;;;15.13;7.23;;;3.70;99.90;;;;;;6124035;23;20277;-80
2023/01/18 10:44:01;;;;;;;12.37;7.33;;;3.80;99.90;;;;;;6099828;23;20152;-79
2023/01/18 10:46:28;;;;;;;18.93;7.70;;;4.00;99.90;;;;;;6099929;23;20185;-79
2023/01/18 10:48:56;;;;;;;12.30;7.60;;;4.00;99.90;;;;;;6124306;23;20150;-79
2023/01/18 10:51:34;;;;;;;10.60;6.20;;;4.30;99.90;;;;;;6125948;23;20126;-79
2023/01/18 10:54:21;;;;;;;13.10;7.40;;;4.20;99.90;;;;;;6099709;23;20161;-79
2023/01/18 10:56:47;;;;;;;12.33;6.10;;;4.40;99.90;;;;;;6099876;23;20150;-79
2023/01/18 10:59:35;;;;;;;11.10;5.97;;;4.40;99.90;;;;;;6099590;23;20156;-79
2023/01/18 11:02:00;;;;;;;10.87;6.90;;;4.50;99.90;;;;;;6099796;23;20580;-79
2023/01/18 11:04:32;;;;;;;13.33;6.60;;;4.60;99.90;;;;;;6125619;23;20134;-79
2023/01/18 11:07:00;;;;;;;12.80;7.23;;;4.90;99.90;;;;;;6124257;23;20184;-80
2023/01/18 11:09:53;;;;;;;14.60;7.50;;;5.20;99.90;;;;;;6099834;23;20210;-80
2023/01/18 11:12:40;;;;;;;13.07;5.67;;;5.30;99.90;;;;;;6099684;23;20150;-78
2023/01/18 11:15:14;;;;;;;12.30;6.17;;;5.50;99.90;;;;;;6125333;23;20510;-78
2023/01/18 11:17:56;;;;;;;14.17;6.13;;;5.80;99.90;;;;;;6124143;23;20160;-79
2023/01/18 11:20:43;;;;;;;10.63;5.80;;;6.10;99.90;;;;;;6099568;23;20237;-80
2023/01/18 11:23:08;;;;;;;8.80;5.43;;;6.30;99.90;;;;;;6123886;23;20486;-80
2023/01/18 11:25:37;;;;;;;7.77;5.10;;;6.10;99.90;;;;;;6124152;23;20158;-79
2023/01/18 11:28:10;;;;;;;8.80;4.83;;;5.90;99.90;;;;;;6099412;23;20506;-81
2023/01/18 11:30:57;;;;;;;8.87;5.70;;;6.00;99.90;;;;;;6125819;23;20191;-80
2023/01/18 11:33:25;;;;;;;9.43;5.57;;;6.50;99.90;;;;;;6099660;23;20589;-79
2023/01/18 11:35:57;;;;;;;10.10;5.20;;;6.90;99.90;;;;;;6123992;23;20154;-81
2023/01/18 11:38:30;;;;;;;11.07;5.33;;;7.20;99.90;;;;;;6123984;23;20151;-78
2023/01/18 11:41:18;;;;;;;9.73;5.80;;;7.30;99.90;;;;;;6125421;23;20132;-78
2023/01/18 11:44:22;;;;;;;6.23;4.70;;;7.60;99.90;;;;;;6099427;23;20153;-80
2023/01/18 11:46:52;;;;;;;8.07;5.47;;;7.80;99.90;;;;;;6099878;23;20183;-80
2023/01/18 11:49:23;;;;;;;9.87;4.47;;;7.90;99.90;;;;;;6100034;23;20164;-79
2023/01/18 11:51:50;;;;;;;9.10;5.20;;;8.20;99.90;;;;;;6099778;23;20596;-79
2023/01/18 11:54:48;;;;;;;8.23;5.20;;;8.50;99.90;;;;;;6125814;23;20170;-81
2023/01/18 11:57:15;;;;;;;8.27;4.63;;;8.50;99.90;;;;;;6127424;23;20164;-79
2023/01/18 11:59:45;;;;;;;9.23;5.10;;;8.40;99.90;;;;;;6126118;23;20150;-78
2023/01/18 12:02:25;;;;;;;8.97;5.00;;;8.50;99.90;;;;;;6101400;23;20143;-80
2023/01/18 12:05:12;;;;;;;10.00;5.30;;;8.00;99.90;;;;;;6125681;23;20150;-78
2023/01/18 12:07:42;;;;;;;9.50;5.13;;;8.20;99.90;;;;;;6101649;23;20266;-83
2023/01/18 12:10:22;;;;;;;10.90;5.10;;;8.60;99.90;;;;;;6127192;23;20134;-82
2023/01/18 12:12:56;;;;;;;7.83;4.63;;;8.40;99.90;;;;;;6125862;23;20157;-79
2023/01/18 12:15:50;;;;;;;13.70;5.43;;;8.70;99.90;;;;;;6101339;23;20157;-79
2023/01/18 12:18:28;;;;;;;7.60;4.20;;;9.10;99.90;;;;;;6101259;23;20192;-78
2023/01/18 12:21:05;;;;;;;7.43;4.37;;;9.50;99.90;;;;;;6102154;23;20572;-78
2023/01/18 12:23:58;;;;;;;13.50;5.60;;;9.20;99.90;;;;;;6128000;23;20141;-78
2023/01/18 12:26:42;;;;;;;5.77;3.83;;;8.60;99.90;;;;;;6101854;23;20230;-78
2023/01/18 12:29:10;;;;;;;5.60;4.00;;;8.20;99.90;;;;;;6101695;23;20209;-78
2023/01/18 12:31:44;;;;;;;6.70;3.97;;;8.10;99.90;;;;;;6101450;23;20146;-78
2023/01/18 12:34:33;;;;;;;9.53;4.53;;;8.30;99.90;;;;;;6126160;23;20153;-78
2023/01/18 12:37:19;;;;;;;7.17;4.33;;;9.10;99.90;;;;;;6101564;23;20580;-78
2023/01/18 12:40:07;;;;;;;11.20;5.83;;;9.70;99.90;;;;;;6101772;23;20146;-79
2023/01/18 12:43:05;;;;;;;8.80;4.57;;;9.90;99.90;;;;;;6127255;23;20134;-78
2023/01/18 12:46:06;;;;;;;10.60;4.00;;;9.80;99.90;;;;;;6101134;23;20168;-80
2023/01/18 12:49:00;;;;;;;8.00;4.23;;;9.50;99.90;;;;;;6101319;23;20161;-78
2023/01/18 12:51:30;;;;;;;7.27;4.57;;;8.60;99.90;;;;;;6119677;23;20154;-78
2023/01/18 12:54:00;;;;;;;8.73;4.93;;;7.40;99.90;;;;;;6100720;23;20275;-78
2023/01/18 12:56:37;;;;;;;7.77;4.70;;;6.70;99.90;;;;;;6126487;23;20153;-77
2023/01/18 12:59:07;;;;;;;9.73;4.93;;;6.40;99.90;;;;;;6125283;23;20152;-78
2023/01/18 13:01:41;;;;;;;9.47;4.87;;;6.00;99.90;;;;;;6126523;23;20147;-77
2023/01/18 13:04:16;;;;;;;8.00;4.60;;;5.70;99.90;;;;;;6124788;23;20555;-78
2023/01/18 13:06:44;;;;;;;11.50;5.03;;;5.70;99.90;;;;;;6100500;23;20169;-78
2023/01/18 13:09:14;;;;;;;10.20;4.53;;;5.80;99.90;;;;;;6100612;23;20217;-78
2023/01/18 13:11:42;;;;;;;9.13;4.50;;;5.70;99.90;;;;;;6101049;23;20138;-78
2023/01/18 13:14:26;;;;;;;8.00;5.10;;;5.70;99.90;;;;;;6100902;23;20146;-79
2023/01/18 13:17:18;;;;;;;7.57;5.27;;;5.50;99.90;;;;;;6100607;23;20150;-79
2023/01/18 13:19:59;;;;;;;9.53;5.17;;;5.20;99.90;;;;;;6112186;23;20168;-79
2023/01/18 13:22:51;;;;;;;11.33;5.40;;;5.50;99.90;;;;;;6100789;23;20154;-80
2023/01/18 13:25:37;;;;;;;9.53;4.50;;;5.40;99.90;;;;;;6081446;23;20164;-80
2023/01/18 13:28:14;;;;;;;10.87;4.87;;;5.50;99.90;;;;;;6126406;23;20170;-78
2023/01/18 13:31:01;;;;;;;10.80;5.10;;;5.50;99.90;;;;;;6100279;23;20138;-80
2023/01/18 13:33:34;;;;;;;9.27;4.90;;;5.50;99.90;;;;;;6124982;23;20134;-78
2023/01/18 13:36:16;;;;;;;10.03;5.47;;;5.40;99.90;;;;;;6100354;23;20253;-78
2023/01/18 13:38:50;;;;;;;9.90;5.17;;;5.50;99.90;;;;;;6100086;23;20234;-79
2023/01/18 13:41:28;;;;;;;9.53;5.07;;;5.50;99.90;;;;;;6126345;23;20129;-78
2023/01/18 13:44:00;;;;;;;15.70;5.33;;;5.50;99.90;;;;;;6100488;23;20149;-79